Aviation Digital Data Service (ADDS)

Output produced by METARs form (1432 UTC 05 December 2016)
found at http://aviationweather.gov/adds/metars/
 
KPOU 051409Z 0514/0612 17004KT P6SM OVC015 
     FM051600 23005KT P6SM SCT015 OVC025 
     FM051800 28007KT P6SM OVC035 
     FM060000 31004KT P6SM BKN035